GMTN/TTU METAR and TAF weather

Enter ICAO airport designator
Station Type Date Time Source
GMTN METAR 2018/10/19 15:00 UTC NOAA

GMTN 191500Z 09006KT 060V120 9999 SCT023 SCT100 19/12 Q1010 NOSIG


Station Type Date Time Source
GMTN Decoded METAR 2018/10/19 15:00 UTC NOAA

Tetuan / Sania Ramel, Morocco (GMTN) 35-35N 005-20W 10M
Oct 19, 2018 - 11:00 AM EDT / 2018.10.19 1500 UTC
Wind: from the E (090 degrees) at 7 MPH (6 KT) (direction variable):0
Visibility: greater than 7 mile(s):0
Sky conditions: partly cloudy
Temperature: 66 F (19 C)
Dew Point: 53 F (12 C)
Relative Humidity: 63%
Pressure (altimeter): 29.83 in. Hg (1010 hPa)
ob: GMTN 191500Z 09006KT 060V120 9999 SCT023 SCT100 19/12 Q1010 NOSIG
cycle: 15

Station Type Date Time Source
GMTN TAF UTC NOAA

Error!


Example: see airport list